Time;durP1;ratioP1;P1;durP2;ratioP2;P2;SDS_P1;SDS_P2;PMS_P1;PMS_P2;Temp;Humidity;BMP_temperature;BMP_pressure;BME280_temperature;BME280_humidity;BME280_pressure;Samples;Min_cycle;Max_cycle;Signal;HPM_P1;HPM_P2
2021/05/24 00:01:49;;;;;;;1999.90;999.90;;;10.70;99.90;;;;;;5075238;28;20254;-68
2021/05/24 00:04:15;;;;;;;1999.90;999.90;;;10.70;99.90;;;;;;5075046;28;21098;-68
2021/05/24 00:06:41;;;;;;;1999.90;999.90;;;10.60;99.90;;;;;;5074776;28;20174;-68
2021/05/24 00:09:06;;;;;;;1999.90;999.90;;;10.60;99.90;;;;;;5074771;28;20182;-68
2021/05/24 00:11:32;;;;;;;1999.90;999.90;;;10.60;99.90;;;;;;5074796;28;20536;-67
2021/05/24 00:13:59;;;;;;;1999.90;999.90;;;10.60;99.90;;;;;;5074881;28;20421;-67
2021/05/24 00:16:25;;;;;;;1999.90;999.90;;;10.60;99.90;;;;;;5074314;28;20907;-66
2021/05/24 00:18:51;;;;;;;1999.90;999.90;;;10.60;99.90;;;;;;5074605;28;20423;-66
2021/05/24 00:21:19;;;;;;;1999.90;999.90;;;10.60;99.90;;;;;;5074617;28;20222;-66
2021/05/24 00:23:45;;;;;;;1999.90;999.90;;;10.60;99.90;;;;;;5074409;28;20447;-67
2021/05/24 00:26:11;;;;;;;1999.90;999.90;;;10.70;99.90;;;;;;5074189;28;20899;-66
2021/05/24 00:28:37;;;;;;;1999.90;999.90;;;10.70;99.90;;;;;;5074283;28;20419;-66
2021/05/24 00:31:03;;;;;;;1999.90;999.90;;;10.80;99.90;;;;;;5074561;28;20414;-66
2021/05/24 00:33:29;;;;;;;1999.90;999.90;;;10.90;99.90;;;;;;5074373;28;20899;-66
2021/05/24 00:35:54;;;;;;;1999.90;999.90;;;11.00;99.90;;;;;;5074096;28;20174;-66
2021/05/24 00:38:20;;;;;;;1999.90;999.90;;;11.10;99.90;;;;;;5074207;28;20249;-67
2021/05/24 00:40:46;;;;;;;1999.90;999.90;;;11.20;99.90;;;;;;5074204;28;20633;-66
2021/05/24 00:43:11;;;;;;;1999.90;999.90;;;11.20;99.90;;;;;;5074148;28;20202;-67
2021/05/24 00:45:39;;;;;;;1999.90;999.90;;;11.20;99.90;;;;;;5073749;28;20170;-67
2021/05/24 00:48:05;;;;;;;1999.90;999.90;;;11.20;99.90;;;;;;5073449;28;20456;-66
2021/05/24 00:50:32;;;;;;;1999.90;999.90;;;11.30;99.90;;;;;;5074042;28;20932;-67
2021/05/24 00:52:58;;;;;;;1999.90;999.90;;;11.30;99.90;;;;;;5074027;28;20779;-67
2021/05/24 00:55:23;;;;;;;1999.90;999.90;;;11.50;99.90;;;;;;5073640;28;20438;-67
2021/05/24 00:57:50;;;;;;;1999.90;999.90;;;11.50;99.90;;;;;;5073874;28;20665;-68
2021/05/24 01:00:41;;;;;;;1999.90;999.90;;;11.50;99.90;;;;;;5074004;28;20533;-66
2021/05/24 01:03:09;;;;;;;1999.90;999.90;;;11.60;99.90;;;;;;5073275;28;20538;-66
2021/05/24 01:05:35;;;;;;;1999.90;999.90;;;11.50;99.90;;;;;;5073506;28;20578;-66
2021/05/24 01:08:02;;;;;;;1999.90;999.90;;;11.60;99.90;;;;;;5073814;28;20475;-66
2021/05/24 01:10:29;;;;;;;1999.90;999.90;;;11.60;99.90;;;;;;5073751;28;20456;-67
2021/05/24 01:12:56;;;;;;;1999.90;999.90;;;11.70;99.90;;;;;;5073672;28;20432;-66
2021/05/24 01:15:22;;;;;;;1999.90;999.90;;;11.60;99.90;;;;;;5073365;28;20405;-67
2021/05/24 01:17:48;;;;;;;1999.90;999.90;;;11.70;99.90;;;;;;5073498;28;20818;-67
2021/05/24 01:20:14;;;;;;;1999.90;999.90;;;11.60;99.90;;;;;;5073540;28;20170;-66
2021/05/24 01:22:44;;;;;;;1999.90;999.90;;;11.60;99.90;;;;;;5073405;28;20194;-68
2021/05/24 01:25:10;;;;;;;1999.90;999.90;;;11.70;99.90;;;;;;5073250;28;20227;-67
2021/05/24 01:27:36;;;;;;;1999.90;999.90;;;11.70;99.90;;;;;;5073269;28;20447;-68
2021/05/24 01:30:03;;;;;;;1999.90;999.90;;;11.70;99.90;;;;;;5073461;28;20400;-67
2021/05/24 01:32:29;;;;;;;1999.90;999.90;;;11.70;99.90;;;;;;5073507;28;20703;-67
2021/05/24 01:34:55;;;;;;;1999.90;999.90;;;11.80;99.90;;;;;;5073155;28;20412;-67
2021/05/24 01:37:21;;;;;;;1999.90;999.90;;;11.80;99.90;;;;;;5073135;28;20188;-67
2021/05/24 01:39:47;;;;;;;1999.90;999.90;;;11.80;99.90;;;;;;5073153;28;20425;-67
2021/05/24 01:42:13;;;;;;;1999.90;999.90;;;11.80;99.90;;;;;;5073026;28;20466;-67
2021/05/24 01:44:41;;;;;;;1999.90;999.90;;;11.80;99.90;;;;;;5073005;28;20174;-66
2021/05/24 01:47:07;;;;;;;1999.90;999.90;;;11.80;99.90;;;;;;5072931;28;20645;-67
2021/05/24 01:49:34;;;;;;;1999.90;999.90;;;11.60;99.90;;;;;;5072743;28;20451;-65
2021/05/24 01:52:02;;;;;;;1999.90;999.90;;;11.40;99.90;;;;;;5072953;28;20431;-67
2021/05/24 01:54:27;;;;;;;1999.90;999.90;;;11.30;99.90;;;;;;5072692;28;20414;-66
2021/05/24 01:56:53;;;;;;;1999.90;999.90;;;11.10;99.90;;;;;;5072454;28;20419;-67
2021/05/24 01:59:18;;;;;;;1999.90;999.90;;;11.00;99.90;;;;;;5071676;28;20260;-67
2021/05/24 02:01:44;;;;;;;1999.90;999.90;;;10.90;99.90;;;;;;5072629;28;20255;-67
2021/05/24 02:04:10;;;;;;;1999.90;999.90;;;10.80;99.90;;;;;;5072573;28;20220;-67
2021/05/24 02:06:36;;;;;;;1999.90;999.90;;;10.70;99.90;;;;;;5072280;28;20185;-67
2021/05/24 02:09:02;;;;;;;1999.90;999.90;;;10.80;99.90;;;;;;5072497;28;20432;-67
2021/05/24 02:11:28;;;;;;;1999.90;999.90;;;10.80;99.90;;;;;;5072443;28;20170;-67
2021/05/24 02:13:54;;;;;;;1999.90;999.90;;;10.90;99.90;;;;;;5072439;28;20415;-67
2021/05/24 02:16:49;;;;;;;1999.90;999.90;;;11.00;99.90;;;;;;5072119;28;20410;-67
2021/05/24 02:19:16;;;;;;;1999.90;999.90;;;11.10;99.90;;;;;;5071058;28;20439;-66
2021/05/24 02:21:42;;;;;;;1999.90;999.90;;;11.30;99.90;;;;;;5072294;28;20408;-67
2021/05/24 02:24:09;;;;;;;1999.90;999.90;;;11.50;99.90;;;;;;5072170;28;20457;-67
2021/05/24 02:26:36;;;;;;;1999.90;999.90;;;11.60;99.90;;;;;;5071866;28;20447;-66
2021/05/24 02:29:04;;;;;;;1999.90;999.90;;;11.80;99.90;;;;;;5072186;28;20425;-67
2021/05/24 02:31:30;;;;;;;1999.90;999.90;;;11.80;99.90;;;;;;5072371;28;20846;-67
2021/05/24 02:33:56;;;;;;;1999.90;999.90;;;11.90;99.90;;;;;;5072088;28;20484;-67
2021/05/24 02:36:24;;;;;;;1999.90;999.90;;;12.00;99.90;;;;;;5071901;28;20421;-67
2021/05/24 02:38:50;;;;;;;1999.90;999.90;;;12.00;99.90;;;;;;5071992;28;20203;-66
2021/05/24 02:41:16;;;;;;;1999.90;999.90;;;12.00;99.90;;;;;;5071976;28;20437;-66
2021/05/24 02:43:41;;;;;;;1999.90;999.90;;;12.00;99.90;;;;;;5071962;28;20569;-67
2021/05/24 02:46:07;;;;;;;1999.90;999.90;;;12.10;99.90;;;;;;5071877;28;20171;-67
2021/05/24 02:48:33;;;;;;;1999.90;999.90;;;12.10;99.90;;;;;;5071825;28;20607;-66
2021/05/24 02:50:59;;;;;;;1999.90;999.90;;;12.10;99.90;;;;;;5071952;28;20416;-67
2021/05/24 02:53:24;;;;;;;1999.90;999.90;;;12.10;99.90;;;;;;5071894;28;20676;-66
2021/05/24 02:55:50;;;;;;;1999.90;999.90;;;12.00;99.90;;;;;;5071610;28;20171;-66
2021/05/24 02:58:16;;;;;;;1999.90;999.90;;;12.10;99.90;;;;;;5071824;28;20202;-66
2021/05/24 03:00:41;;;;;;;1999.90;999.90;;;12.00;99.90;;;;;;5071805;28;20212;-67
2021/05/24 03:03:08;;;;;;;1999.90;999.90;;;11.90;99.90;;;;;;5071705;28;20206;-66
2021/05/24 03:05:35;;;;;;;1999.90;999.90;;;11.90;99.90;;;;;;5071583;28;20186;-67
2021/05/24 03:08:01;;;;;;;1999.90;999.90;;;11.90;99.90;;;;;;5071611;28;20433;-67
2021/05/24 03:10:27;;;;;;;1999.90;999.90;;;11.80;99.90;;;;;;5074688;28;20470;-67
2021/05/24 03:12:54;;;;;;;1999.90;999.90;;;11.70;99.90;;;;;;5075807;28;20425;-67
2021/05/24 03:15:20;;;;;;;1999.90;999.90;;;11.70;99.90;;;;;;5075605;28;20491;-67
2021/05/24 03:17:46;;;;;;;1999.90;999.90;;;11.60;99.90;;;;;;5075819;28;20405;-68
2021/05/24 03:20:14;;;;;;;1999.90;999.90;;;11.50;99.90;;;;;;5075743;28;20411;-67
2021/05/24 03:22:41;;;;;;;1999.90;999.90;;;11.40;99.90;;;;;;5075764;28;20900;-67
2021/05/24 03:25:08;;;;;;;1999.90;999.90;;;11.40;99.90;;;;;;5075521;28;20443;-68
2021/05/24 03:27:34;;;;;;;1999.90;999.90;;;11.30;99.90;;;;;;5075547;28;20412;-68
2021/05/24 03:30:00;;;;;;;1999.90;999.90;;;11.30;99.90;;;;;;5075803;28;20430;-67
2021/05/24 03:32:25;;;;;;;1999.90;999.90;;;11.30;99.90;;;;;;5075680;28;20406;-67
2021/05/24 03:34:51;;;;;;;1999.90;999.90;;;11.30;99.90;;;;;;5075285;28;20167;-68
2021/05/24 03:37:17;;;;;;;1999.90;999.90;;;11.30;99.90;;;;;;5075456;28;20170;-67
2021/05/24 03:39:43;;;;;;;1999.90;999.90;;;11.20;99.90;;;;;;5075718;28;20236;-68
2021/05/24 03:42:09;;;;;;;1999.90;999.90;;;11.20;99.90;;;;;;5075382;28;20475;-68
2021/05/24 03:44:36;;;;;;;1999.90;999.90;;;11.30;99.90;;;;;;5075267;28;20208;-67
2021/05/24 03:47:02;;;;;;;1999.90;999.90;;;11.40;99.90;;;;;;5075164;28;20182;-67
2021/05/24 03:49:28;;;;;;;1999.90;999.90;;;11.40;99.90;;;;;;5075155;28;20545;-68
2021/05/24 03:51:54;;;;;;;1999.90;999.90;;;11.40;99.90;;;;;;5075132;28;20441;-67
2021/05/24 03:54:20;;;;;;;1999.90;999.90;;;11.40;99.90;;;;;;5075091;28;20495;-67
2021/05/24 03:56:47;;;;;;;1999.90;999.90;;;11.40;99.90;;;;;;5074860;28;20182;-67
2021/05/24 03:59:13;;;;;;;1999.90;999.90;;;11.40;99.90;;;;;;5074994;28;20209;-67
2021/05/24 04:01:39;;;;;;;1999.90;999.90;;;11.50;99.90;;;;;;5075150;28;20495;-67
2021/05/24 04:04:06;;;;;;;1999.90;999.90;;;11.50;99.90;;;;;;5074919;28;20655;-68
2021/05/24 04:06:32;;;;;;;1999.90;999.90;;;11.50;99.90;;;;;;5074602;28;20898;-68
2021/05/24 04:08:58;;;;;;;1999.90;999.90;;;11.60;99.90;;;;;;5075019;28;20428;-68
2021/05/24 04:11:24;;;;;;;1999.90;999.90;;;11.70;99.90;;;;;;5075231;28;20796;-67
2021/05/24 04:13:52;;;;;;;1999.90;999.90;;;11.70;99.90;;;;;;5074808;28;20413;-67
2021/05/24 04:16:18;;;;;;;1999.90;999.90;;;11.70;99.90;;;;;;5074444;28;20226;-68
2021/05/24 04:18:48;;;;;;;1999.90;999.90;;;11.70;99.90;;;;;;5074749;28;20470;-67
2021/05/24 04:21:15;;;;;;;1999.90;999.90;;;11.70;99.90;;;;;;5073604;28;20645;-67
2021/05/24 04:23:41;;;;;;;1999.90;999.90;;;11.80;99.90;;;;;;5074598;28;20550;-67
2021/05/24 04:26:07;;;;;;;1999.90;999.90;;;11.80;99.90;;;;;;5074393;28;20408;-67
2021/05/24 04:28:33;;;;;;;1999.90;999.90;;;11.80;99.90;;;;;;5074471;28;20431;-67
2021/05/24 04:30:59;;;;;;;1999.90;999.90;;;11.80;99.90;;;;;;5074529;28;20632;-67
2021/05/24 04:33:25;;;;;;;1999.90;999.90;;;11.80;99.90;;;;;;5074615;28;20408;-67
2021/05/24 04:35:50;;;;;;;1999.90;999.90;;;11.90;99.90;;;;;;5074139;28;20881;-68
2021/05/24 04:38:16;;;;;;;1999.90;999.90;;;12.00;99.90;;;;;;5074432;28;20224;-68
2021/05/24 04:40:42;;;;;;;1999.90;999.90;;;11.90;99.90;;;;;;5074548;28;20632;-67
2021/05/24 04:43:07;;;;;;;1999.90;999.90;;;12.00;99.90;;;;;;5074196;28;20259;-68
2021/05/24 04:45:34;;;;;;;1999.90;999.90;;;12.00;99.90;;;;;;5074174;28;20178;-67
2021/05/24 04:48:00;;;;;;;1999.90;999.90;;;12.00;99.90;;;;;;5074088;28;20205;-68
2021/05/24 04:50:25;;;;;;;1999.90;999.90;;;12.00;99.90;;;;;;5074082;28;20458;-67
2021/05/24 04:52:51;;;;;;;1999.90;999.90;;;12.00;99.90;;;;;;5074469;28;20182;-67
2021/05/24 04:55:18;;;;;;;1999.90;999.90;;;12.00;99.90;;;;;;5073946;28;20691;-69
2021/05/24 04:57:44;;;;;;;1999.90;999.90;;;12.00;99.90;;;;;;5074129;28;20579;-67
2021/05/24 05:00:10;;;;;;;1999.90;999.90;;;12.10;99.90;;;;;;5074161;28;20402;-67
2021/05/24 05:02:37;;;;;;;1999.90;999.90;;;12.10;99.90;;;;;;5073983;28;20186;-67
2021/05/24 05:05:05;;;;;;;1999.90;999.90;;;12.20;99.90;;;;;;5073701;28;20431;-68
2021/05/24 05:07:31;;;;;;;1999.90;999.90;;;12.20;99.90;;;;;;5073997;28;20408;-69
2021/05/24 05:09:58;;;;;;;1999.90;999.90;;;12.30;99.90;;;;;;5073820;28;20436;-68
2021/05/24 05:12:24;;;;;;;1999.90;999.90;;;12.30;99.90;;;;;;5074132;28;20401;-68
2021/05/24 05:14:50;;;;;;;1999.90;999.90;;;12.40;99.90;;;;;;5073542;28;20412;-67
2021/05/24 05:17:15;;;;;;;1999.90;999.90;;;12.40;99.90;;;;;;5073869;28;20409;-68
2021/05/24 05:19:41;;;;;;;1999.90;999.90;;;12.50;99.90;;;;;;5073694;28;20186;-68
2021/05/24 05:22:07;;;;;;;1999.90;999.90;;;12.50;99.90;;;;;;5073832;28;20208;-68
2021/05/24 05:24:33;;;;;;;1999.90;999.90;;;12.50;99.90;;;;;;5073665;28;20213;-68
2021/05/24 05:26:59;;;;;;;1999.90;999.90;;;12.60;99.90;;;;;;5073473;28;20409;-68
2021/05/24 05:29:24;;;;;;;1999.90;999.90;;;12.70;99.90;;;;;;5073850;28;20191;-67
2021/05/24 05:31:50;;;;;;;1999.90;999.90;;;12.70;99.90;;;;;;5073573;28;20182;-68
2021/05/24 05:34:16;;;;;;;1999.90;999.90;;;12.70;99.90;;;;;;5073175;28;20254;-68
2021/05/24 05:36:41;;;;;;;1999.90;999.90;;;12.80;99.90;;;;;;5073183;28;20202;-67
2021/05/24 05:39:07;;;;;;;1999.90;999.90;;;12.90;99.90;;;;;;5072964;28;20194;-67
2021/05/24 05:41:34;;;;;;;1999.90;999.90;;;12.90;99.90;;;;;;5073129;28;20651;-68
2021/05/24 05:44:00;;;;;;;1999.90;999.90;;;13.00;99.90;;;;;;5072966;28;20445;-66
2021/05/24 05:46:26;;;;;;;1999.90;999.90;;;13.10;99.90;;;;;;5072699;28;20421;-67
2021/05/24 05:48:52;;;;;;;1999.90;999.90;;;13.20;99.90;;;;;;5072697;28;20453;-67
2021/05/24 05:51:17;;;;;;;1999.90;999.90;;;13.30;99.90;;;;;;5072883;28;20172;-67
2021/05/24 05:53:43;;;;;;;1999.90;999.90;;;13.40;99.90;;;;;;5073009;28;20186;-68
2021/05/24 05:56:08;;;;;;;1999.90;999.90;;;13.40;99.90;;;;;;5072505;28;20604;-67
2021/05/24 05:58:34;;;;;;;1999.90;999.90;;;13.50;99.90;;;;;;5072684;28;20194;-67
2021/05/24 06:01:03;;;;;;;1999.90;999.90;;;13.60;99.90;;;;;;5072636;28;20200;-66
2021/05/24 06:03:29;;;;;;;1999.90;999.90;;;13.70;99.90;;;;;;5072515;28;20687;-66
2021/05/24 06:05:55;;;;;;;1999.90;999.90;;;13.70;99.90;;;;;;5072283;28;20405;-67
2021/05/24 06:08:20;;;;;;;1999.90;999.90;;;13.80;99.90;;;;;;5072636;28;20433;-67
2021/05/24 06:10:46;;;;;;;1999.90;999.90;;;13.90;99.90;;;;;;5072539;28;20530;-67
2021/05/24 06:13:12;;;;;;;1999.90;999.90;;;14.00;99.90;;;;;;5072452;28;20171;-67
2021/05/24 06:15:37;;;;;;;1999.90;999.90;;;14.10;99.90;;;;;;5072127;28;20184;-67
2021/05/24 06:18:03;;;;;;;1999.90;999.90;;;14.20;99.90;;;;;;5072271;28;20710;-67
2021/05/24 06:20:28;;;;;;;1999.90;999.90;;;14.30;99.90;;;;;;5072494;28;20176;-67
2021/05/24 06:22:54;;;;;;;1999.90;999.90;;;14.40;99.90;;;;;;5072422;28;20333;-67
2021/05/24 06:25:20;;;;;;;1999.90;999.90;;;14.50;99.90;;;;;;5071986;28;20172;-69
2021/05/24 06:27:45;;;;;;;1999.90;999.90;;;14.50;99.90;;;;;;5072231;28;20653;-67
2021/05/24 06:30:12;;;;;;;1999.90;999.90;;;14.60;99.90;;;;;;5072273;28;20178;-67
2021/05/24 06:32:38;;;;;;;1999.90;999.90;;;14.70;99.90;;;;;;5072092;28;20828;-67
2021/05/24 06:35:05;;;;;;;1999.90;999.90;;;14.70;99.90;;;;;;5071851;28;20403;-67
2021/05/24 06:37:31;;;;;;;1999.90;999.90;;;14.90;99.90;;;;;;5072097;28;20776;-67
2021/05/24 06:39:56;;;;;;;1999.90;999.90;;;14.90;99.90;;;;;;5072090;28;20431;-67
2021/05/24 06:42:24;;;;;;;1999.90;999.90;;;15.00;99.90;;;;;;5072038;28;20169;-68
2021/05/24 06:44:50;;;;;;;1999.90;999.90;;;15.10;99.90;;;;;;5071219;28;20649;-67
2021/05/24 06:47:16;;;;;;;1999.90;999.90;;;15.20;99.90;;;;;;5071745;28;20413;-67
2021/05/24 06:49:41;;;;;;;1999.90;999.90;;;15.30;99.90;;;;;;5071903;28;20521;-67
2021/05/24 06:52:07;;;;;;;1999.90;999.90;;;15.40;99.90;;;;;;5071944;28;20173;-67
2021/05/24 06:54:33;;;;;;;1999.90;999.90;;;15.60;99.90;;;;;;5071913;28;20653;-67
2021/05/24 06:56:58;;;;;;;1999.90;999.90;;;15.80;99.90;;;;;;5071706;28;20303;-67
2021/05/24 06:59:24;;;;;;;1999.90;999.90;;;15.90;99.90;;;;;;5071703;28;20945;-67
2021/05/24 07:01:50;;;;;;;1999.90;999.90;;;16.10;99.90;;;;;;5071878;28;20599;-67
2021/05/24 07:04:15;;;;;;;1999.90;999.90;;;16.20;99.90;;;;;;5071702;28;20491;-67
2021/05/24 07:06:41;;;;;;;1999.90;999.90;;;16.40;99.90;;;;;;5071627;28;20599;-68
2021/05/24 07:09:07;;;;;;;1999.90;999.90;;;16.50;99.90;;;;;;5071931;28;20558;-68
2021/05/24 07:11:33;;;;;;;1999.90;999.90;;;16.60;99.90;;;;;;5071855;28;20596;-66
2021/05/24 07:13:58;;;;;;;1999.90;999.90;;;16.60;99.90;;;;;;5071712;28;20407;-67
2021/05/24 07:16:24;;;;;;;1999.90;999.90;;;16.70;99.90;;;;;;5071323;28;20173;-67
2021/05/24 07:18:49;;;;;;;1999.90;999.90;;;16.90;99.90;;;;;;5071634;28;20190;-67
2021/05/24 07:21:15;;;;;;;1999.90;999.90;;;17.10;99.90;;;;;;5071626;28;20167;-68
2021/05/24 07:23:41;;;;;;;1999.90;999.90;;;17.20;99.90;;;;;;5071589;28;20190;-67
2021/05/24 07:26:06;;;;;;;1999.90;999.90;;;17.40;99.90;;;;;;5071365;28;20192;-69
2021/05/24 07:28:32;;;;;;;1999.90;999.90;;;17.40;99.90;;;;;;5071522;28;20641;-67
2021/05/24 07:30:58;;;;;;;1999.90;999.90;;;17.30;99.90;;;;;;5071495;28;20269;-69
2021/05/24 07:33:23;;;;;;;1999.90;999.90;;;17.40;99.90;;;;;;5071510;28;20175;-67
2021/05/24 07:35:49;;;;;;;1999.90;999.90;;;17.40;99.90;;;;;;5071347;28;20166;-67
2021/05/24 07:38:14;;;;;;;1999.90;999.90;;;17.40;99.90;;;;;;5071430;28;20190;-67
2021/05/24 07:40:40;;;;;;;1999.90;999.90;;;17.30;99.90;;;;;;5071571;28;20600;-67
2021/05/24 07:43:06;;;;;;;1999.90;999.90;;;17.10;99.90;;;;;;5071433;28;20192;-68
2021/05/24 07:45:32;;;;;;;1999.90;999.90;;;17.00;99.90;;;;;;5071191;28;20658;-67
2021/05/24 07:47:57;;;;;;;1999.90;999.90;;;17.00;99.90;;;;;;5071323;28;20195;-67
2021/05/24 07:50:24;;;;;;;1999.90;999.90;;;16.90;99.90;;;;;;5071470;28;20609;-67
2021/05/24 07:52:50;;;;;;;1999.90;999.90;;;16.70;99.90;;;;;;5071529;28;20197;-68
2021/05/24 07:55:16;;;;;;;1999.90;999.90;;;16.60;99.90;;;;;;5071455;28;20829;-67
2021/05/24 07:57:42;;;;;;;1999.90;999.90;;;16.60;99.90;;;;;;5075018;28;20170;-67
2021/05/24 08:00:10;;;;;;;1999.90;999.90;;;16.60;99.90;;;;;;5075281;28;20182;-68
2021/05/24 08:02:40;;;;;;;1999.90;999.90;;;16.60;99.90;;;;;;5074989;28;20403;-68
2021/05/24 08:05:08;;;;;;;1999.90;999.90;;;16.50;99.90;;;;;;5074705;28;20406;-67
2021/05/24 08:07:34;;;;;;;1999.90;999.90;;;16.60;99.90;;;;;;5074849;28;20477;-66
2021/05/24 08:10:00;;;;;;;1999.90;999.90;;;16.60;99.90;;;;;;5074946;28;20407;-67
2021/05/24 08:12:25;;;;;;;1999.90;999.90;;;16.70;99.90;;;;;;5074710;28;20739;-67
2021/05/24 08:14:51;;;;;;;1999.90;999.90;;;16.70;99.90;;;;;;5074481;28;20246;-67
2021/05/24 08:17:17;;;;;;;1999.90;999.90;;;16.80;99.90;;;;;;5074834;28;20248;-68
2021/05/24 08:19:42;;;;;;;1999.90;999.90;;;16.80;99.90;;;;;;5074653;28;20640;-66
2021/05/24 08:22:08;;;;;;;1999.90;999.90;;;16.80;99.90;;;;;;5074700;28;20540;-67
2021/05/24 08:24:33;;;;;;;1999.90;999.90;;;16.90;99.90;;;;;;5074530;28;20286;-67
2021/05/24 08:26:59;;;;;;;1999.90;999.90;;;16.90;99.90;;;;;;5074502;28;20526;-67
2021/05/24 08:29:25;;;;;;;1999.90;999.90;;;16.90;99.90;;;;;;5074505;28;20189;-67
2021/05/24 08:31:50;;;;;;;1999.90;999.90;;;16.90;99.90;;;;;;5074516;28;20194;-67
2021/05/24 08:34:16;;;;;;;1999.90;999.90;;;17.00;99.90;;;;;;5074401;28;20629;-67
2021/05/24 08:36:43;;;;;;;1999.90;999.90;;;17.00;99.90;;;;;;5074040;28;20178;-67
2021/05/24 08:39:09;;;;;;;1999.90;999.90;;;16.90;99.90;;;;;;5074548;28;20250;-67
2021/05/24 08:41:35;;;;;;;1999.90;999.90;;;16.70;99.90;;;;;;5074260;28;20885;-67
2021/05/24 08:44:00;;;;;;;1999.90;999.90;;;16.70;99.90;;;;;;5074302;28;20447;-66
2021/05/24 08:46:26;;;;;;;1999.90;999.90;;;16.60;99.90;;;;;;5073982;28;20407;-67
2021/05/24 08:48:52;;;;;;;1999.90;999.90;;;16.70;99.90;;;;;;5074075;28;20686;-68
2021/05/24 08:51:18;;;;;;;1999.90;999.90;;;16.70;99.90;;;;;;5066258;28;20416;-67
2021/05/24 08:53:44;;;;;;;1999.90;999.90;;;16.70;99.90;;;;;;5052946;28;20408;-67
2021/05/24 08:56:10;;;;;;;1999.90;999.90;;;16.60;99.90;;;;;;5052552;28;20472;-66
2021/05/24 08:58:36;;;;;;;1999.90;999.90;;;16.70;99.90;;;;;;5053055;28;20193;-67
2021/05/24 09:01:03;;;;;;;1999.90;999.90;;;16.70;99.90;;;;;;5053279;28;20504;-66
2021/05/24 09:03:32;;;;;;;1999.90;999.90;;;16.70;99.90;;;;;;5053135;28;20854;-66
2021/05/24 09:06:00;;;;;;;1999.90;999.90;;;16.60;99.90;;;;;;5053156;28;20403;-66
2021/05/24 09:08:40;;;;;;;1999.90;999.90;;;16.60;99.90;;;;;;5052830;28;20435;-66
2021/05/24 09:11:26;;;;;;;1999.90;999.90;;;16.60;99.90;;;;;;5053931;28;20402;-69
2021/05/24 09:13:51;;;;;;;1999.90;999.90;;;16.60;99.90;;;;;;5053596;28;20437;-69
2021/05/24 09:16:31;;;;;;;1999.90;999.90;;;16.60;99.90;;;;;;5052887;28;20907;-70
2021/05/24 09:19:15;;;;;;;1999.90;999.90;;;16.70;99.90;;;;;;5053213;28;20194;-70
2021/05/24 09:21:56;;;;;;;1999.90;999.90;;;16.70;99.90;;;;;;5053086;28;20398;-68
2021/05/24 09:24:42;;;;;;;1999.90;999.90;;;16.60;99.90;;;;;;5052944;28;20544;-68
2021/05/24 09:27:23;;;;;;;1999.90;999.90;;;16.60;99.90;;;;;;5053039;28;20909;-68
2021/05/24 09:29:52;;;;;;;1999.90;999.90;;;16.60;99.90;;;;;;5053263;28;20903;-70
2021/05/24 09:32:18;;;;;;;1999.90;999.90;;;16.60;99.90;;;;;;5053178;28;20406;-70
2021/05/24 09:34:46;;;;;;;1999.90;999.90;;;16.60;99.90;;;;;;5050806;28;20417;-67
2021/05/24 09:37:13;;;;;;;1999.90;999.90;;;16.60;99.90;;;;;;5049004;28;20531;-67
2021/05/24 09:39:40;;;;;;;1999.90;999.90;;;16.60;99.90;;;;;;5048144;28;20529;-67
2021/05/24 09:42:08;;;;;;;1999.90;999.90;;;16.60;99.90;;;;;;5048904;28;20428;-68
2021/05/24 09:44:34;;;;;;;1999.90;999.90;;;16.60;99.90;;;;;;5048090;28;20459;-68
2021/05/24 09:47:01;;;;;;;1999.90;999.90;;;16.60;99.90;;;;;;5047894;28;20414;-69
2021/05/24 09:49:30;;;;;;;1999.90;999.90;;;16.60;99.90;;;;;;5048264;28;20448;-67
2021/05/24 09:51:59;;;;;;;1999.90;999.90;;;16.50;99.90;;;;;;5048622;28;20500;-68
2021/05/24 09:54:37;;;;;;;1999.90;999.90;;;16.50;99.90;;;;;;5048389;28;20471;-69
2021/05/24 09:57:08;;;;;;;1999.90;999.90;;;16.60;99.90;;;;;;5047472;28;20909;-68
2021/05/24 09:59:35;;;;;;;1999.90;999.90;;;16.60;99.90;;;;;;5048331;28;20436;-69
2021/05/24 10:02:03;;;;;;;1999.90;999.90;;;16.60;99.90;;;;;;5048036;28;20422;-68
2021/05/24 10:04:33;;;;;;;1999.90;999.90;;;16.60;99.90;;;;;;5048221;28;20461;-68
2021/05/24 10:07:01;;;;;;;1999.90;999.90;;;16.70;99.90;;;;;;5043310;28;20412;-67
2021/05/24 10:09:28;;;;;;;1999.90;999.90;;;16.70;99.90;;;;;;5046418;28;20432;-68
2021/05/24 10:11:54;;;;;;;1999.90;999.90;;;16.70;99.90;;;;;;5047887;28;20475;-67
2021/05/24 10:14:24;;;;;;;1999.90;999.90;;;16.70;99.90;;;;;;5046324;28;20411;-68
2021/05/24 10:16:52;;;;;;;1999.90;999.90;;;16.70;99.90;;;;;;5045548;28;20501;-68
2021/05/24 10:19:20;;;;;;;1999.90;999.90;;;16.80;99.90;;;;;;5045364;28;20798;-67
2021/05/24 10:21:48;;;;;;;1999.90;999.90;;;16.80;99.90;;;;;;5057806;28;20497;-68
2021/05/24 10:24:15;;;;;;;1999.90;999.90;;;16.80;99.90;;;;;;5058138;28;20485;-67
2021/05/24 10:26:43;;;;;;;1999.90;999.90;;;16.90;99.90;;;;;;5066253;28;20413;-66
2021/05/24 10:29:10;;;;;;;1999.90;999.90;;;16.90;99.90;;;;;;5066665;28;20489;-69
2021/05/24 10:31:36;;;;;;;1999.90;999.90;;;16.90;99.90;;;;;;5067425;28;20406;-67
2021/05/24 10:34:22;;;;;;;1999.90;999.90;;;17.00;99.90;;;;;;5066826;28;20445;-67
2021/05/24 10:37:04;;;;;;;1999.90;999.90;;;17.10;99.90;;;;;;5065995;28;20175;-68
2021/05/24 10:39:42;;;;;;;1999.90;999.90;;;17.10;99.90;;;;;;5067342;28;20429;-67
2021/05/24 10:42:10;;;;;;;1999.90;999.90;;;17.10;99.90;;;;;;5067516;28;20840;-69
2021/05/24 10:44:42;;;;;;;1999.90;999.90;;;17.10;99.90;;;;;;5065647;28;20472;-69
2021/05/24 10:47:49;;;;;;;1999.90;999.90;;;17.20;99.90;;;;;;5066171;28;20412;-67
2021/05/24 10:50:18;;;;;;;1999.90;999.90;;;17.10;99.90;;;;;;5066867;28;20423;-67
2021/05/24 10:52:54;;;;;;;1999.90;999.90;;;17.10;99.90;;;;;;5066517;28;20489;-69
2021/05/24 10:55:26;;;;;;;1999.90;999.90;;;17.00;99.90;;;;;;5066278;28;20425;-69
2021/05/24 10:57:56;;;;;;;1999.90;999.90;;;17.00;99.90;;;;;;5066968;28;20535;-69
2021/05/24 11:00:21;;;;;;;1999.90;999.90;;;16.90;99.90;;;;;;5066958;28;20405;-66
2021/05/24 11:02:52;;;;;;;1999.90;999.90;;;16.70;99.90;;;;;;5066821;28;20954;-68
2021/05/24 11:05:28;;;;;;;1999.90;999.90;;;16.60;99.90;;;;;;5065431;28;20209;-69
2021/05/24 11:07:56;;;;;;;1999.90;999.90;;;16.40;99.90;;;;;;5066583;28;20996;-68
2021/05/24 11:10:24;;;;;;;1999.90;999.90;;;16.20;99.90;;;;;;5065934;28;21028;-66
2021/05/24 11:12:52;;;;;;;1999.90;999.90;;;16.20;99.90;;;;;;5066102;28;21104;-66
2021/05/24 11:15:32;;;;;;;1999.90;999.90;;;16.20;99.90;;;;;;5066036;28;20493;-68
2021/05/24 11:17:58;;;;;;;1999.90;999.90;;;16.20;99.90;;;;;;5066847;28;20518;-67
2021/05/24 11:20:29;;;;;;;1999.90;999.90;;;16.10;99.90;;;;;;5065905;28;20994;-67
2021/05/24 11:26:14;;;;;;;1999.90;999.90;;;16.00;99.90;;;;;;5065189;28;20439;-67
2021/05/24 11:28:41;;;;;;;1999.90;999.90;;;15.90;99.90;;;;;;5066892;28;20433;-67
2021/05/24 11:31:11;;;;;;;1999.90;999.90;;;15.80;99.90;;;;;;5068909;28;20417;-68
2021/05/24 11:33:49;;;;;;;1999.90;999.90;;;15.80;99.90;;;;;;5071110;28;20509;-69
2021/05/24 11:36:39;;;;;;;1999.90;999.90;;;15.80;99.90;;;;;;5069870;28;21170;-68
2021/05/24 11:39:20;;;;;;;1999.90;999.90;;;15.60;99.90;;;;;;5071039;28;20690;-68
2021/05/24 11:41:51;;;;;;;1999.90;999.90;;;15.50;99.90;;;;;;5071142;28;20417;-68
2021/05/24 11:44:16;;;;;;;1999.90;999.90;;;15.40;99.90;;;;;;5070453;28;20462;-68
2021/05/24 11:46:42;;;;;;;1999.90;999.90;;;15.50;99.90;;;;;;5069817;28;20414;-70
2021/05/24 11:49:08;;;;;;;1999.90;999.90;;;15.50;99.90;;;;;;5070895;28;20222;-69
2021/05/24 11:51:35;;;;;;;1999.90;999.90;;;15.40;99.90;;;;;;5070419;28;20198;-69
2021/05/24 11:54:06;;;;;;;1999.90;999.90;;;15.40;99.90;;;;;;5070734;28;20192;-70
2021/05/24 11:56:36;;;;;;;1999.90;999.90;;;15.30;99.90;;;;;;5070582;28;20425;-69
2021/05/24 11:59:03;;;;;;;1999.90;999.90;;;15.20;99.90;;;;;;5070384;28;20441;-69
2021/05/24 12:01:29;;;;;;;1999.90;999.90;;;15.20;99.90;;;;;;5070612;28;20788;-69
2021/05/24 12:03:55;;;;;;;1999.90;999.90;;;15.30;99.90;;;;;;5070517;28;20547;-69